Time;durP1;ratioP1;P1;durP2;ratioP2;P2;SDS_P1;SDS_P2;PMS_P1;PMS_P2;Temp;Humidity;BMP_temperature;BMP_pressure;BME280_temperature;BME280_humidity;BME280_pressure;Samples;Min_cycle;Max_cycle;Signal;HPM_P1;HPM_P2
2024/02/17 00:00:30;;;;;;;4.97;1.35;;;;;;;;;;4883683;29;20056;-90
2024/02/17 00:03:02;;;;;;;5.93;1.98;;;;;;;;;;4900218;29;20056;-89
2024/02/17 00:05:33;;;;;;;5.22;1.75;;;;;;;;;;4899322;29;20052;-88
2024/02/17 00:08:04;;;;;;;4.95;1.50;;;;;;;;;;4900127;29;20052;-87
2024/02/17 00:10:35;;;;;;;5.47;1.52;;;;;;;;;;4885259;29;20048;-91
2024/02/17 00:13:05;;;;;;;5.50;1.33;;;;;;;;;;4901629;29;20049;-87
2024/02/17 00:15:36;;;;;;;5.70;1.73;;;;;;;;;;4901999;29;20056;-85
2024/02/17 00:18:06;;;;;;;3.70;1.60;;;;;;;;;;4901746;29;20059;-82
2024/02/17 00:20:39;;;;;;;3.75;1.73;;;;;;;;;;4902915;29;20048;-86
2024/02/17 00:23:13;;;;;;;6.65;1.33;;;;;;;;;;4902490;29;20499;-88
2024/02/17 00:25:48;;;;;;;4.78;1.48;;;;;;;;;;4905147;29;20480;-85
2024/02/17 00:28:25;;;;;;;5.10;1.40;;;;;;;;;;4901596;29;20057;-86
2024/02/17 00:30:56;;;;;;;3.78;1.58;;;;;;;;;;4902538;29;20499;-90
2024/02/17 00:33:26;;;;;;;5.55;1.73;;;;;;;;;;4895922;29;20053;-85
2024/02/17 00:35:58;;;;;;;6.35;1.67;;;;;;;;;;4882606;29;20053;-86
2024/02/17 00:38:30;;;;;;;3.95;1.60;;;;;;;;;;4883858;29;20072;-86
2024/02/17 00:41:02;;;;;;;5.82;1.67;;;;;;;;;;4883710;29;20061;-89
2024/02/17 00:43:34;;;;;;;3.92;1.48;;;;;;;;;;4882904;29;20511;-88
2024/02/17 00:46:05;;;;;;;5.47;1.77;;;;;;;;;;4882985;29;20408;-85
2024/02/17 00:48:36;;;;;;;3.30;2.15;;;;;;;;;;4881845;29;20489;-85
2024/02/17 00:51:07;;;;;;;3.50;1.50;;;;;;;;;;4896638;29;20397;-85
2024/02/17 00:53:43;;;;;;;2.65;1.65;;;;;;;;;;4894720;29;20068;-85
2024/02/17 00:56:14;;;;;;;5.28;1.77;;;;;;;;;;4898902;29;20052;-87
2024/02/17 00:58:50;;;;;;;6.47;1.85;;;;;;;;;;4898141;29;20055;-87
2024/02/17 01:01:20;;;;;;;5.00;1.75;;;;;;;;;;4882639;29;20067;-84
2024/02/17 01:04:05;;;;;;;7.53;1.88;;;;;;;;;;4899092;29;20048;-85
2024/02/17 01:06:39;;;;;;;7.53;1.65;;;;;;;;;;4914502;29;20051;-90
2024/02/17 01:09:11;;;;;;;4.50;1.85;;;;;;;;;;4918581;29;20047;-86
2024/02/17 01:11:41;;;;;;;4.63;1.80;;;;;;;;;;4917346;29;20055;-85
2024/02/17 01:14:14;;;;;;;7.60;1.80;;;;;;;;;;4916661;29;20439;-86
2024/02/17 01:16:45;;;;;;;3.60;1.83;;;;;;;;;;4918172;29;20048;-87
2024/02/17 01:19:15;;;;;;;4.68;1.52;;;;;;;;;;4915979;29;20052;-85
2024/02/17 01:21:45;;;;;;;5.97;1.52;;;;;;;;;;4917482;29;20055;-85
2024/02/17 01:24:15;;;;;;;5.75;2.15;;;;;;;;;;4918567;29;20048;-86
2024/02/17 01:26:46;;;;;;;3.60;1.80;;;;;;;;;;4902390;29;20055;-86
2024/02/17 01:29:18;;;;;;;3.83;1.42;;;;;;;;;;4901527;29;20055;-86
2024/02/17 01:31:51;;;;;;;9.07;1.75;;;;;;;;;;4886638;29;20063;-86
2024/02/17 01:34:22;;;;;;;5.32;2.00;;;;;;;;;;4902517;29;20506;-87
2024/02/17 01:36:55;;;;;;;3.72;1.27;;;;;;;;;;4921894;29;20157;-85
2024/02/17 01:39:30;;;;;;;4.80;1.40;;;;;;;;;;4904829;29;20048;-85
2024/02/17 01:42:00;;;;;;;5.75;1.60;;;;;;;;;;4919950;29;20385;-86
2024/02/17 01:44:31;;;;;;;4.13;1.77;;;;;;;;;;4918940;29;20133;-85
2024/02/17 01:47:01;;;;;;;6.07;1.60;;;;;;;;;;4921786;29;20418;-84
2024/02/17 01:49:31;;;;;;;8.57;1.70;;;;;;;;;;4889823;29;20060;-86
2024/02/17 01:52:04;;;;;;;4.93;1.50;;;;;;;;;;4920975;29;20431;-86
2024/02/17 01:54:37;;;;;;;3.63;1.63;;;;;;;;;;4919857;29;20487;-85
2024/02/17 01:57:07;;;;;;;3.92;1.42;;;;;;;;;;4904643;29;20056;-85
2024/02/17 01:59:39;;;;;;;8.48;1.63;;;;;;;;;;4920601;29;20502;-86
2024/02/17 02:02:37;;;;;;;10.05;2.08;;;;;;;;;;4919247;29;20048;-85
2024/02/17 02:05:09;;;;;;;8.38;1.80;;;;;;;;;;4918412;29;20455;-87
2024/02/17 02:07:41;;;;;;;2.58;1.35;;;;;;;;;;4901134;29;20388;-87
2024/02/17 02:10:12;;;;;;;6.47;1.60;;;;;;;;;;4885664;29;20064;-85
2024/02/17 02:12:42;;;;;;;12.75;2.25;;;;;;;;;;4900469;29;20415;-85
2024/02/17 02:15:13;;;;;;;5.00;1.70;;;;;;;;;;4918221;29;20476;-85
2024/02/17 02:17:43;;;;;;;2.75;1.33;;;;;;;;;;4901212;29;20060;-84
2024/02/17 02:20:14;;;;;;;11.30;1.63;;;;;;;;;;4917787;29;20052;-85
2024/02/17 02:22:45;;;;;;;3.53;1.38;;;;;;;;;;4918405;29;20056;-87
2024/02/17 02:25:34;;;;;;;3.42;1.60;;;;;;;;;;4917998;29;20044;-86
2024/02/17 02:28:05;;;;;;;6.47;1.80;;;;;;;;;;4885070;29;20067;-86
2024/02/17 02:30:36;;;;;;;4.95;1.40;;;;;;;;;;4914375;29;20045;-86
2024/02/17 02:33:06;;;;;;;6.68;1.88;;;;;;;;;;4898379;29;20044;-85
2024/02/17 02:35:37;;;;;;;7.97;1.63;;;;;;;;;;4912487;29;20044;-85
2024/02/17 02:38:08;;;;;;;7.25;1.80;;;;;;;;;;4906696;29;20040;-88
2024/02/17 02:40:38;;;;;;;7.78;1.88;;;;;;;;;;4904636;29;20424;-85
2024/02/17 02:43:08;;;;;;;5.32;1.45;;;;;;;;;;4896734;29;20048;-84
2024/02/17 02:45:38;;;;;;;11.70;1.98;;;;;;;;;;4917990;29;20059;-84
2024/02/17 02:48:08;;;;;;;4.03;1.63;;;;;;;;;;4915862;29;20063;-87
2024/02/17 02:50:39;;;;;;;3.35;1.50;;;;;;;;;;4916206;29;20040;-84
2024/02/17 02:53:10;;;;;;;5.72;1.60;;;;;;;;;;4918466;29;20484;-86
2024/02/17 02:55:41;;;;;;;3.90;1.80;;;;;;;;;;4904302;29;20060;-87
2024/02/17 02:58:11;;;;;;;9.05;1.88;;;;;;;;;;4904179;29;20059;-86
2024/02/17 03:00:44;;;;;;;4.07;1.30;;;;;;;;;;4887781;29;20052;-91
2024/02/17 03:03:16;;;;;;;5.90;1.70;;;;;;;;;;4903032;29;20048;-87
2024/02/17 03:05:47;;;;;;;5.00;1.88;;;;;;;;;;4917512;29;20047;-88
2024/02/17 03:08:21;;;;;;;7.80;1.52;;;;;;;;;;4917787;29;20484;-90
2024/02/17 03:10:51;;;;;;;9.80;1.98;;;;;;;;;;4921033;29;20052;-86
2024/02/17 03:13:22;;;;;;;4.35;1.67;;;;;;;;;;4918571;29;20044;-87
2024/02/17 03:15:52;;;;;;;5.25;1.60;;;;;;;;;;4916925;29;20052;-87
2024/02/17 03:18:22;;;;;;;7.75;2.08;;;;;;;;;;4915019;29;20063;-89
2024/02/17 03:20:53;;;;;;;2.80;1.58;;;;;;;;;;4900654;29;20052;-87
2024/02/17 03:23:26;;;;;;;7.10;1.85;;;;;;;;;;4916788;29;20051;-87
2024/02/17 03:25:58;;;;;;;6.57;1.67;;;;;;;;;;4899625;29;20048;-87
2024/02/17 03:28:28;;;;;;;5.13;2.20;;;;;;;;;;4916968;29;20051;-87
2024/02/17 03:30:58;;;;;;;5.22;1.95;;;;;;;;;;4900694;29;20055;-87
2024/02/17 03:33:28;;;;;;;8.13;2.00;;;;;;;;;;4917897;29;20048;-87
2024/02/17 03:35:58;;;;;;;6.28;1.88;;;;;;;;;;4920500;29;20060;-87
2024/02/17 03:38:31;;;;;;;7.32;1.85;;;;;;;;;;4921891;29;20048;-86
2024/02/17 03:41:04;;;;;;;5.60;1.85;;;;;;;;;;4918323;29;20044;-87
2024/02/17 03:43:34;;;;;;;6.93;2.03;;;;;;;;;;4900681;29;20387;-91
2024/02/17 03:46:06;;;;;;;9.25;2.20;;;;;;;;;;4899199;29;20056;-87
2024/02/17 03:48:36;;;;;;;9.60;2.00;;;;;;;;;;4899351;29;20083;-89
2024/02/17 03:51:07;;;;;;;5.43;1.98;;;;;;;;;;4915223;29;20411;-88
2024/02/17 03:53:41;;;;;;;8.90;2.13;;;;;;;;;;4916073;29;20048;-87
2024/02/17 03:56:15;;;;;;;7.72;2.20;;;;;;;;;;4915054;29;20044;-88
2024/02/17 03:58:46;;;;;;;5.93;2.33;;;;;;;;;;4915405;29;20502;-89
2024/02/17 04:01:18;;;;;;;14.27;2.08;;;;;;;;;;4884391;29;20060;-87
2024/02/17 04:03:48;;;;;;;6.80;2.53;;;;;;;;;;4900444;29;20364;-88
2024/02/17 04:06:20;;;;;;;8.00;2.63;;;;;;;;;;4898738;29;20078;-87
2024/02/17 04:08:50;;;;;;;4.88;2.10;;;;;;;;;;4900446;29;20044;-87
2024/02/17 04:11:21;;;;;;;11.05;2.50;;;;;;;;;;4899715;29;20048;-87
2024/02/17 04:13:51;;;;;;;12.10;3.33;;;;;;;;;;4896943;29;20048;-87
2024/02/17 04:16:22;;;;;;;5.63;2.00;;;;;;;;;;4897697;29;20492;-84
2024/02/17 04:18:52;;;;;;;8.75;2.45;;;;;;;;;;4899359;29;20053;-89
2024/02/17 04:21:23;;;;;;;6.93;2.13;;;;;;;;;;4898881;29;20432;-86
2024/02/17 04:23:53;;;;;;;5.93;2.17;;;;;;;;;;4899764;29;20057;-86
2024/02/17 04:26:24;;;;;;;6.03;2.25;;;;;;;;;;4900284;29;20051;-85
2024/02/17 04:28:54;;;;;;;10.98;2.33;;;;;;;;;;4900802;29;20044;-85
2024/02/17 04:31:24;;;;;;;7.65;2.08;;;;;;;;;;4899259;29;20510;-85
2024/02/17 04:33:57;;;;;;;3.72;1.95;;;;;;;;;;4899921;29;20060;-85
2024/02/17 04:36:27;;;;;;;10.20;2.20;;;;;;;;;;4902882;29;20055;-86
2024/02/17 04:38:59;;;;;;;5.63;1.83;;;;;;;;;;4901179;29;20048;-85
2024/02/17 04:41:29;;;;;;;7.90;1.83;;;;;;;;;;4899085;29;20053;-85
2024/02/17 04:43:59;;;;;;;9.48;2.63;;;;;;;;;;4884193;29;20060;-86
2024/02/17 04:46:28;;;;;;;5.03;2.38;;;;;;;;;;4884367;29;20385;-87
2024/02/17 04:48:59;;;;;;;8.25;1.90;;;;;;;;;;4884079;29;20130;-86
2024/02/17 04:51:29;;;;;;;7.05;2.25;;;;;;;;;;4885288;29;20048;-85
2024/02/17 04:54:03;;;;;;;5.07;2.13;;;;;;;;;;4869486;29;20056;-86
2024/02/17 04:56:36;;;;;;;6.68;1.88;;;;;;;;;;4884414;29;20044;-85
2024/02/17 04:59:07;;;;;;;7.13;2.17;;;;;;;;;;4901678;29;20049;-87
2024/02/17 05:01:37;;;;;;;7.05;2.15;;;;;;;;;;4905080;29;20052;-86
2024/02/17 05:04:08;;;;;;;6.60;2.17;;;;;;;;;;4902782;29;20122;-86
2024/02/17 05:06:39;;;;;;;5.45;2.05;;;;;;;;;;4899811;29;20060;-86
2024/02/17 05:09:09;;;;;;;4.68;2.25;;;;;;;;;;4903439;29;20059;-85
2024/02/17 05:11:42;;;;;;;5.68;2.38;;;;;;;;;;4900334;29;20061;-87
2024/02/17 05:14:15;;;;;;;7.88;2.60;;;;;;;;;;4902493;29;20059;-86
2024/02/17 05:16:47;;;;;;;4.45;2.15;;;;;;;;;;4884406;29;20048;-87
2024/02/17 05:19:17;;;;;;;7.13;2.50;;;;;;;;;;4883797;29;20041;-88
2024/02/17 05:21:49;;;;;;;7.53;2.00;;;;;;;;;;4899991;29;20044;-86
2024/02/17 05:24:20;;;;;;;4.82;2.10;;;;;;;;;;4899985;29;20044;-86
2024/02/17 05:26:51;;;;;;;3.42;1.70;;;;;;;;;;4883610;29;20492;-86
2024/02/17 05:29:22;;;;;;;11.52;2.20;;;;;;;;;;4898231;29;20436;-86
2024/02/17 05:31:54;;;;;;;8.82;2.17;;;;;;;;;;4867979;29;20060;-86
2024/02/17 05:34:25;;;;;;;11.70;2.53;;;;;;;;;;4883905;29;20053;-87
2024/02/17 05:36:56;;;;;;;10.40;2.17;;;;;;;;;;4899986;29;20044;-86
2024/02/17 05:39:27;;;;;;;9.98;2.45;;;;;;;;;;4883613;29;20071;-85
2024/02/17 05:42:01;;;;;;;6.78;2.25;;;;;;;;;;4883313;29;20473;-85
2024/02/17 05:44:32;;;;;;;9.77;1.95;;;;;;;;;;4883267;29;20040;-86
2024/02/17 05:47:04;;;;;;;6.38;2.00;;;;;;;;;;4898450;29;20048;-85
2024/02/17 05:49:34;;;;;;;7.07;2.42;;;;;;;;;;4897779;29;20048;-86
2024/02/17 05:52:05;;;;;;;8.93;2.15;;;;;;;;;;4899847;29;20049;-88
2024/02/17 05:54:37;;;;;;;7.60;2.05;;;;;;;;;;4899363;29;20040;-85
2024/02/17 05:57:08;;;;;;;8.43;2.13;;;;;;;;;;4899787;29;20044;-88
2024/02/17 05:59:40;;;;;;;5.05;1.83;;;;;;;;;;4881543;29;20059;-85
2024/02/17 06:02:11;;;;;;;5.80;2.75;;;;;;;;;;4883441;29;20052;-85
2024/02/17 06:04:42;;;;;;;4.63;1.90;;;;;;;;;;4899438;29;20053;-85
2024/02/17 06:07:19;;;;;;;9.15;2.20;;;;;;;;;;4898182;29;20056;-85
2024/02/17 06:09:50;;;;;;;13.82;2.95;;;;;;;;;;4882596;29;20053;-85
2024/02/17 06:12:21;;;;;;;5.68;2.17;;;;;;;;;;4898066;29;20060;-85
2024/02/17 06:14:52;;;;;;;11.15;2.63;;;;;;;;;;4897062;29;20068;-84
2024/02/17 06:17:23;;;;;;;11.52;2.80;;;;;;;;;;4883068;29;20048;-85
2024/02/17 06:22:42;;;;;;;8.52;2.30;;;;;;;;;;4896932;29;20047;-86
2024/02/17 06:25:14;;;;;;;8.77;2.20;;;;;;;;;;4898820;29;20369;-86
2024/02/17 06:27:44;;;;;;;5.82;2.13;;;;;;;;;;4897065;29;20479;-85
2024/02/17 06:30:14;;;;;;;4.95;2.20;;;;;;;;;;4866915;29;20162;-86
2024/02/17 06:32:47;;;;;;;7.00;2.50;;;;;;;;;;4896559;29;20060;-86
2024/02/17 06:35:17;;;;;;;9.10;2.67;;;;;;;;;;4881986;29;20056;-86
2024/02/17 06:37:48;;;;;;;6.85;2.03;;;;;;;;;;4881908;29;20055;-86
2024/02/17 06:40:19;;;;;;;10.52;2.45;;;;;;;;;;4897509;29;20059;-87
2024/02/17 06:42:49;;;;;;;6.75;2.17;;;;;;;;;;4866870;29;20064;-85
2024/02/17 06:45:20;;;;;;;6.03;2.17;;;;;;;;;;4898589;29;20052;-85
2024/02/17 06:47:50;;;;;;;8.27;2.88;;;;;;;;;;4897357;29;20496;-86
2024/02/17 06:50:20;;;;;;;8.63;3.28;;;;;;;;;;4898371;29;20055;-86
2024/02/17 06:52:53;;;;;;;8.98;3.22;;;;;;;;;;4897017;29;20056;-87
2024/02/17 06:55:23;;;;;;;10.27;3.55;;;;;;;;;;4881446;29;20048;-86
2024/02/17 06:57:53;;;;;;;8.23;2.97;;;;;;;;;;4896541;29;20505;-85
2024/02/17 07:00:25;;;;;;;11.90;3.53;;;;;;;;;;4881527;29;20056;-87
2024/02/17 07:02:57;;;;;;;14.15;3.42;;;;;;;;;;4896682;29;20056;-85
2024/02/17 07:05:27;;;;;;;6.80;2.95;;;;;;;;;;4881796;29;20052;-85
2024/02/17 07:07:56;;;;;;;12.75;3.78;;;;;;;;;;4898502;29;20503;-86
2024/02/17 07:10:28;;;;;;;16.73;3.40;;;;;;;;;;4896351;29;20084;-85
2024/02/17 07:12:59;;;;;;;14.02;3.05;;;;;;;;;;4896660;29;20049;-86
2024/02/17 07:15:32;;;;;;;8.40;3.17;;;;;;;;;;4897987;29;20396;-86
2024/02/17 07:18:03;;;;;;;6.68;2.97;;;;;;;;;;4881364;29;20053;-86
2024/02/17 07:20:35;;;;;;;11.18;3.72;;;;;;;;;;4896759;29;20056;-85
2024/02/17 07:23:05;;;;;;;11.90;3.75;;;;;;;;;;4881736;29;20605;-85
2024/02/17 07:25:35;;;;;;;12.90;4.28;;;;;;;;;;4881045;29;20064;-87
2024/02/17 07:28:06;;;;;;;9.65;3.63;;;;;;;;;;4896642;29;20511;-87
2024/02/17 07:30:37;;;;;;;12.88;3.90;;;;;;;;;;4897605;29;20052;-86
2024/02/17 07:33:08;;;;;;;8.90;3.83;;;;;;;;;;4897746;29;20044;-87
2024/02/17 07:35:41;;;;;;;26.00;3.60;;;;;;;;;;4880343;29;20059;-86
2024/02/17 07:38:12;;;;;;;12.48;4.30;;;;;;;;;;4897706;29;20492;-85
2024/02/17 07:40:43;;;;;;;10.68;3.38;;;;;;;;;;4895974;29;20052;-86
2024/02/17 07:43:15;;;;;;;16.50;3.35;;;;;;;;;;4897867;29;20055;-86
2024/02/17 07:45:48;;;;;;;11.73;3.72;;;;;;;;;;4880870;29;20400;-86
2024/02/17 07:48:19;;;;;;;10.63;4.07;;;;;;;;;;4896150;29;20052;-88
2024/02/17 07:50:49;;;;;;;16.33;4.20;;;;;;;;;;4881270;29;20045;-87
2024/02/17 07:53:21;;;;;;;13.90;4.25;;;;;;;;;;4896916;29;20369;-85
2024/02/17 07:55:51;;;;;;;13.88;4.70;;;;;;;;;;4897138;29;20048;-87
2024/02/17 07:58:23;;;;;;;14.65;5.18;;;;;;;;;;4897360;29;20040;-85
2024/02/17 08:00:53;;;;;;;16.58;5.28;;;;;;;;;;4872832;29;20053;-85
2024/02/17 08:03:24;;;;;;;14.63;5.30;;;;;;;;;;4860108;29;20060;-86
2024/02/17 08:05:54;;;;;;;13.40;4.53;;;;;;;;;;4861749;29;20061;-86
2024/02/17 08:08:27;;;;;;;12.13;4.32;;;;;;;;;;4880077;29;20063;-86
2024/02/17 08:10:58;;;;;;;18.23;4.85;;;;;;;;;;4868301;29;20053;-87
2024/02/17 08:13:31;;;;;;;7.90;3.70;;;;;;;;;;4881978;29;20366;-88
2024/02/17 08:16:02;;;;;;;11.63;4.03;;;;;;;;;;4865755;29;20060;-85
2024/02/17 08:18:34;;;;;;;7.57;3.50;;;;;;;;;;4892186;29;20052;-87
2024/02/17 08:21:05;;;;;;;;;;;;;;;;;;4901697;29;20045;-87
2024/02/17 08:23:35;;;;;;;9.93;3.22;;;;;;;;;;4883677;29;19927;-85
2024/02/17 08:26:05;;;;;;;10.18;3.75;;;;;;;;;;4900837;29;20547;-85
2024/02/17 08:28:38;;;;;;;7.25;3.50;;;;;;;;;;4899234;29;20496;-84
2024/02/17 08:31:09;;;;;;;11.63;3.75;;;;;;;;;;4900648;29;20052;-85
2024/02/17 08:33:39;;;;;;;11.25;3.53;;;;;;;;;;4900973;29;20408;-85
2024/02/17 08:36:09;;;;;;;7.68;3.53;;;;;;;;;;4900427;29;20045;-86
2024/02/17 08:38:39;;;;;;;10.20;3.55;;;;;;;;;;4900482;29;20049;-85
2024/02/17 08:41:10;;;;;;;12.38;3.35;;;;;;;;;;4899822;29;20044;-85
2024/02/17 08:43:41;;;;;;;10.27;2.97;;;;;;;;;;4899150;29;20059;-86
2024/02/17 08:46:11;;;;;;;;;;;;;;;;;;4899817;29;20056;-85
2024/02/17 08:48:41;;;;;;;8.60;3.63;;;;;;;;;;4898868;29;19923;-85
2024/02/17 08:51:15;;;;;;;7.80;3.22;;;;;;;;;;4898538;29;20052;-87
2024/02/17 08:53:46;;;;;;;6.93;3.40;;;;;;;;;;4900525;29;20048;-85
2024/02/17 08:56:15;;;;;;;7.03;3.17;;;;;;;;;;4900973;29;20044;-85
2024/02/17 08:58:49;;;;;;;8.90;3.03;;;;;;;;;;4883777;29;20057;-86
2024/02/17 09:01:19;;;;;;;9.60;3.20;;;;;;;;;;4899061;29;20052;-86
2024/02/17 09:03:51;;;;;;;7.95;3.35;;;;;;;;;;4882803;29;20138;-86
2024/02/17 09:06:22;;;;;;;8.60;3.47;;;;;;;;;;4898870;29;20053;-85
2024/02/17 09:08:53;;;;;;;11.20;3.70;;;;;;;;;;4898950;29;20063;-87
2024/02/17 09:11:30;;;;;;;12.95;3.13;;;;;;;;;;4900221;29;20048;-87
2024/02/17 09:14:02;;;;;;;6.75;2.75;;;;;;;;;;4899005;29;20044;-85
2024/02/17 09:16:33;;;;;;;7.40;2.90;;;;;;;;;;4899166;29;20048;-87
2024/02/17 09:20:00;;;;;;;9.75;2.97;;;;;;;;;;4900606;29;20053;-86
2024/02/17 09:22:49;;;;;;;7.40;3.00;;;;;;;;;;4870310;29;20063;-86
2024/02/17 09:25:20;;;;;;;16.15;4.72;;;;;;;;;;4900084;29;20056;-86
2024/02/17 09:27:50;;;;;;;7.25;3.28;;;;;;;;;;4900092;29;20049;-86
2024/02/17 09:30:20;;;;;;;8.32;3.60;;;;;;;;;;4882510;29;20061;-87
2024/02/17 09:32:50;;;;;;;10.38;3.85;;;;;;;;;;4883888;29;20049;-86
2024/02/17 09:35:20;;;;;;;9.23;3.53;;;;;;;;;;4900238;29;20056;-86
2024/02/17 09:37:53;;;;;;;13.15;3.90;;;;;;;;;;4898698;29;20044;-88
2024/02/17 09:40:24;;;;;;;6.55;3.10;;;;;;;;;;4899798;29;20053;-88
2024/02/17 09:42:54;;;;;;;7.85;3.80;;;;;;;;;;4898570;29;20491;-85
2024/02/17 09:45:26;;;;;;;6.68;3.03;;;;;;;;;;4899726;29;20036;-86
2024/02/17 09:47:58;;;;;;;6.72;2.53;;;;;;;;;;4899719;29;20055;-86
2024/02/17 09:50:31;;;;;;;13.27;3.15;;;;;;;;;;4899168;29;20056;-86
2024/02/17 09:53:05;;;;;;;7.55;2.85;;;;;;;;;;4898424;29;20051;-87
2024/02/17 09:55:36;;;;;;;5.43;2.67;;;;;;;;;;4898342;29;20067;-86
2024/02/17 09:58:06;;;;;;;8.68;2.80;;;;;;;;;;4897668;29;20056;-85
2024/02/17 10:00:37;;;;;;;4.93;2.60;;;;;;;;;;4897715;29;20067;-86
2024/02/17 10:03:10;;;;;;;9.98;2.85;;;;;;;;;;4897701;29;20060;-86
2024/02/17 10:05:40;;;;;;;4.82;2.42;;;;;;;;;;4882074;29;20045;-84
2024/02/17 10:08:12;;;;;;;6.43;2.50;;;;;;;;;;4886693;29;20053;-85
2024/02/17 10:10:45;;;;;;;5.13;2.90;;;;;;;;;;4873569;29;20555;-85
2024/02/17 10:13:20;;;;;;;11.45;2.88;;;;;;;;;;4879101;29;20049;-85
2024/02/17 10:15:51;;;;;;;7.05;2.53;;;;;;;;;;4878912;29;20048;-84
2024/02/17 10:18:23;;;;;;;8.13;3.15;;;;;;;;;;4879169;29;20064;-84
2024/02/17 10:20:55;;;;;;;7.50;2.20;;;;;;;;;;4877139;29;20068;-84
2024/02/17 10:23:26;;;;;;;10.80;3.00;;;;;;;;;;4879175;29;20057;-83
2024/02/17 10:25:57;;;;;;;6.65;2.80;;;;;;;;;;4876479;29;20051;-84
2024/02/17 10:28:29;;;;;;;5.65;2.58;;;;;;;;;;4882610;29;20048;-86
2024/02/17 10:31:03;;;;;;;7.70;2.90;;;;;;;;;;4861758;29;20049;-84
2024/02/17 10:33:37;;;;;;;10.80;2.85;;;;;;;;;;4877314;29;20057;-86
2024/02/17 10:36:09;;;;;;;9.20;3.17;;;;;;;;;;4878450;29;20056;-86
2024/02/17 10:38:41;;;;;;;7.22;3.42;;;;;;;;;;4878966;29;20060;-85
2024/02/17 10:41:12;;;;;;;9.85;3.28;;;;;;;;;;4878903;29;20059;-84
2024/02/17 10:43:44;;;;;;;5.93;3.13;;;;;;;;;;4879001;29;20049;-84
2024/02/17 10:46:21;;;;;;;6.68;3.33;;;;;;;;;;4878801;29;20048;-84
2024/02/17 10:49:06;;;;;;;5.00;2.97;;;;;;;;;;4874705;29;20052;-84
2024/02/17 10:51:52;;;;;;;8.57;2.70;;;;;;;;;;4878461;29;20077;-84
2024/02/17 10:54:34;;;;;;;4.68;2.53;;;;;;;;;;4878538;29;20045;-86
2024/02/17 10:57:10;;;;;;;4.43;2.30;;;;;;;;;;4878299;29;20052;-85
2024/02/17 10:59:44;;;;;;;4.53;2.00;;;;;;;;;;4877311;29;20420;-84
2024/02/17 11:02:19;;;;;;;4.70;2.10;;;;;;;;;;4895484;29;20372;-85
2024/02/17 11:04:50;;;;;;;6.20;2.40;;;;;;;;;;4897250;29;20041;-85
2024/02/17 11:07:21;;;;;;;7.22;2.28;;;;;;;;;;4898538;29;20064;-84
2024/02/17 11:10:05;;;;;;;6.65;2.05;;;;;;;;;;4913764;29;20048;-83
2024/02/17 11:12:37;;;;;;;9.32;2.75;;;;;;;;;;4895935;29;20044;-84
2024/02/17 11:15:09;;;;;;;5.38;1.67;;;;;;;;;;4895351;29;20053;-84
2024/02/17 11:17:40;;;;;;;4.43;1.60;;;;;;;;;;4896748;29;20048;-84
2024/02/17 11:20:14;;;;;;;3.78;1.35;;;;;;;;;;4895694;29;20064;-84
2024/02/17 11:22:47;;;;;;;4.70;1.67;;;;;;;;;;4896773;29;20048;-85
2024/02/17 11:25:31;;;;;;;;;;;;;;;;;;4896026;29;20264;-86
2024/02/17 11:28:05;;;;;;;9.15;1.63;;;;;;;;;;4895464;29;20279;-84
2024/02/17 11:30:53;;;;;;;3.03;1.13;;;;;;;;;;4897105;29;20048;-85
2024/02/17 11:33:28;;;;;;;6.40;1.00;;;;;;;;;;4896809;29;20052;-85
2024/02/17 11:36:08;;;;;;;3.40;1.30;;;;;;;;;;4880951;29;20052;-85
2024/02/17 11:38:39;;;;;;;4.25;0.65;;;;;;;;;;4896723;29;20044;-84
2024/02/17 11:41:15;;;;;;;2.08;0.70;;;;;;;;;;4895252;29;20056;-85
2024/02/17 11:43:46;;;;;;;1.05;0.60;;;;;;;;;;4896849;29;20053;-84
2024/02/17 11:46:19;;;;;;;1.60;0.90;;;;;;;;;;4899289;29;20056;-86
2024/02/17 11:48:50;;;;;;;2.90;0.68;;;;;;;;;;4900234;29;20041;-84
2024/02/17 11:51:22;;;;;;;1.50;0.70;;;;;;;;;;4900695;29;20048;-86
2024/02/17 11:54:01;;;;;;;2.90;0.70;;;;;;;;;;4900306;29;20076;-84
2024/02/17 11:56:33;;;;;;;3.40;0.80;;;;;;;;;;4900546;29;20056;-83
2024/02/17 11:59:04;;;;;;;4.20;1.33;;;;;;;;;;4900333;29;20089;-84
2024/02/17 12:01:40;;;;;;;2.13;1.00;;;;;;;;;;4898109;29;20075;-84
2024/02/17 12:04:11;;;;;;;2.58;0.80;;;;;;;;;;4900419;29;20408;-86
2024/02/17 12:06:41;;;;;;;4.18;0.90;;;;;;;;;;4898767;29;20451;-85
2024/02/17 12:09:11;;;;;;;4.00;0.73;;;;;;;;;;4898921;29;20404;-84
2024/02/17 12:11:42;;;;;;;2.85;0.60;;;;;;;;;;4900098;29;20147;-83
2024/02/17 12:14:12;;;;;;;2.45;0.73;;;;;;;;;;4899933;29;20059;-84
2024/02/17 12:16:44;;;;;;;3.08;0.57;;;;;;;;;;4899900;29;20059;-89
2024/02/17 12:19:16;;;;;;;;;;;;;;;;;;4900805;29;20067;-86
2024/02/17 12:22:11;;;;;;;1.40;0.70;;;;;;;;;;4900201;29;19923;-86
2024/02/17 12:24:42;;;;;;;1.48;0.70;;;;;;;;;;4898406;29;20068;-87
2024/02/17 12:27:13;;;;;;;3.38;0.70;;;;;;;;;;4899820;29;20059;-84
2024/02/17 12:29:54;;;;;;;2.15;0.70;;;;;;;;;;4898853;29;20052;-85
2024/02/17 12:32:24;;;;;;;0.70;0.70;;;;;;;;;;4899839;29;20051;-85
2024/02/17 12:34:54;;;;;;;2.90;0.52;;;;;;;;;;4899825;29;20055;-84
2024/02/17 12:37:25;;;;;;;2.53;0.80;;;;;;;;;;4898736;29;20059;-84
2024/02/17 12:39:57;;;;;;;1.75;0.60;;;;;;;;;;4898416;29;20049;-85
2024/02/17 12:42:30;;;;;;;1.20;0.68;;;;;;;;;;4897764;29;20052;-83
2024/02/17 12:45:04;;;;;;;3.53;0.90;;;;;;;;;;4898297;29;20048;-84
2024/02/17 12:47:35;;;;;;;5.47;0.70;;;;;;;;;;4897706;29;20044;-83
2024/02/17 12:50:06;;;;;;;;;;;;;;;;;;4898626;29;20048;-85
2024/02/17 12:52:36;;;;;;;;;;;;;;;;;;4899581;29;19923;-86
2024/02/17 12:55:06;;;;;;;2.38;0.63;;;;;;;;;;4898407;29;19931;-86
2024/02/17 12:57:37;;;;;;;8.55;4.05;;;;;;;;;;4881501;29;20417;-88
2024/02/17 13:00:11;;;;;;;2.75;0.90;;;;;;;;;;4899116;29;20059;-85
2024/02/17 13:02:42;;;;;;;1.92;0.90;;;;;;;;;;4897418;29;20056;-85
2024/02/17 13:05:17;;;;;;;4.85;1.85;;;;;;;;;;4899430;29;20048;-87
2024/02/17 13:07:49;;;;;;;6.47;2.03;;;;;;;;;;4897730;29;20505;-86
2024/02/17 13:10:20;;;;;;;5.57;0.90;;;;;;;;;;4899191;29;20052;-86
2024/02/17 13:12:51;;;;;;;1.20;0.63;;;;;;;;;;4882377;29;20057;-85
2024/02/17 13:15:21;;;;;;;2.80;0.77;;;;;;;;;;4906892;29;20044;-86
2024/02/17 13:17:51;;;;;;;3.55;0.93;;;;;;;;;;4901746;29;20052;-85
2024/02/17 13:20:21;;;;;;;2.17;1.15;;;;;;;;;;4918799;29;20047;-84
2024/02/17 13:22:51;;;;;;;3.80;1.17;;;;;;;;;;4902226;29;20048;-86
2024/02/17 13:25:21;;;;;;;2.40;1.00;;;;;;;;;;4901569;29;20415;-84
2024/02/17 13:27:52;;;;;;;3.80;0.90;;;;;;;;;;4918817;29;20048;-83
2024/02/17 13:30:22;;;;;;;2.08;0.90;;;;;;;;;;4918604;29;20522;-81
2024/02/17 13:32:53;;;;;;;1.90;0.90;;;;;;;;;;4900282;29;20062;-84
2024/02/17 13:35:25;;;;;;;2.58;0.93;;;;;;;;;;4918101;29;20055;-87
2024/02/17 13:37:58;;;;;;;2.13;0.70;;;;;;;;;;4918833;29;20048;-82
2024/02/17 13:40:46;;;;;;;2.15;1.00;;;;;;;;;;4904901;29;20161;-81
2024/02/17 13:43:17;;;;;;;2.05;0.82;;;;;;;;;;4918405;29;20372;-82
2024/02/17 13:45:52;;;;;;;2.08;0.80;;;;;;;;;;4918536;29;20048;-81
2024/02/17 13:48:22;;;;;;;1.95;0.73;;;;;;;;;;4918494;29;20063;-83
2024/02/17 13:50:53;;;;;;;1.50;0.75;;;;;;;;;;4918770;29;20499;-84
2024/02/17 13:53:23;;;;;;;3.05;1.00;;;;;;;;;;4918794;29;20376;-83
2024/02/17 13:55:53;;;;;;;4.60;0.90;;;;;;;;;;4918891;29;20055;-84
2024/02/17 13:58:23;;;;;;;3.10;0.77;;;;;;;;;;4900649;29;20146;-83
2024/02/17 14:00:53;;;;;;;3.97;0.88;;;;;;;;;;4900773;29;20063;-86
2024/02/17 14:03:24;;;;;;;3.45;0.77;;;;;;;;;;4901231;29;20055;-83
2024/02/17 14:05:54;;;;;;;5.32;1.00;;;;;;;;;;4901174;29;20044;-83
2024/02/17 14:08:24;;;;;;;2.80;0.90;;;;;;;;;;4899950;29;20126;-85
2024/02/17 14:10:54;;;;;;;2.15;1.27;;;;;;;;;;4901212;29;20044;-81
2024/02/17 14:13:25;;;;;;;2.40;1.20;;;;;;;;;;4900946;29;20056;-83
2024/02/17 14:15:55;;;;;;;4.22;0.90;;;;;;;;;;4918674;29;20040;-83
2024/02/17 14:18:29;;;;;;;1.85;0.80;;;;;;;;;;4917830;29;20423;-85
2024/02/17 14:21:01;;;;;;;2.20;0.82;;;;;;;;;;4900828;29;20063;-83
2024/02/17 14:23:31;;;;;;;2.63;0.85;;;;;;;;;;4917637;29;20048;-82
2024/02/17 14:26:02;;;;;;;1.60;0.90;;;;;;;;;;4917693;29;20043;-83
2024/02/17 14:28:32;;;;;;;2.75;1.02;;;;;;;;;;4917760;29;20051;-82
2024/02/17 14:31:02;;;;;;;2.92;0.82;;;;;;;;;;4917657;29;20052;-87
2024/02/17 14:33:32;;;;;;;1.65;0.80;;;;;;;;;;4913745;29;20488;-86
2024/02/17 14:36:02;;;;;;;2.05;0.82;;;;;;;;;;4896990;29;20049;-83
2024/02/17 14:38:32;;;;;;;3.40;0.90;;;;;;;;;;4898751;29;20049;-87
2024/02/17 14:41:02;;;;;;;1.73;0.85;;;;;;;;;;4898846;29;20056;-83
2024/02/17 14:43:34;;;;;;;2.72;1.20;;;;;;;;;;4900355;29;20052;-86
2024/02/17 14:46:07;;;;;;;2.35;0.90;;;;;;;;;;4897937;29;20056;-89
2024/02/17 14:48:37;;;;;;;2.28;0.85;;;;;;;;;;4898055;29;20059;-88
2024/02/17 14:51:13;;;;;;;1.77;0.80;;;;;;;;;;4898784;29;20361;-83
2024/02/17 14:53:44;;;;;;;1.83;1.05;;;;;;;;;;4896401;29;20049;-85
2024/02/17 14:56:15;;;;;;;3.30;1.05;;;;;;;;;;4898779;29;20053;-85
2024/02/17 14:58:45;;;;;;;3.55;0.88;;;;;;;;;;4898543;29;20048;-85
2024/02/17 15:01:17;;;;;;;2.00;0.95;;;;;;;;;;4898344;29;20053;-86
2024/02/17 15:03:48;;;;;;;2.13;0.90;;;;;;;;;;4896764;29;20389;-84
2024/02/17 15:06:19;;;;;;;;;;;;;;;;;;4899492;29;20492;-83
2024/02/17 15:08:49;;;;;;;2.97;0.73;;;;;;;;;;4898027;29;19934;-88
2024/02/17 15:11:21;;;;;;;2.33;1.23;;;;;;;;;;4896411;29;20055;-88
2024/02/17 15:13:52;;;;;;;3.75;1.10;;;;;;;;;;4896923;29;20126;-84